sensor_id;sensor_type;location;lat;lon;timestamp;P1;durP1;ratioP1;P2;durP2;ratioP2
58752;SDS011;44525;46.052;13.610;2023-02-01T00:02:23;36.83;;;19.65;;
58752;SDS011;44525;46.052;13.610;2023-02-01T00:04:49;40.42;;;19.45;;
58752;SDS011;44525;46.052;13.610;2023-02-01T00:07:14;37.78;;;19.33;;
58752;SDS011;44525;46.052;13.610;2023-02-01T00:09:39;42.92;;;21.42;;
58752;SDS011;44525;46.052;13.610;2023-02-01T00:12:05;42.05;;;20.75;;
58752;SDS011;44525;46.052;13.610;2023-02-01T00:14:30;41.67;;;22.13;;
58752;SDS011;44525;46.052;13.610;2023-02-01T00:17:03;39.15;;;22.17;;
58752;SDS011;44525;46.052;13.610;2023-02-01T00:19:29;39.25;;;20.95;;
58752;SDS011;44525;46.052;13.610;2023-02-01T00:21:54;46.58;;;21.30;;
58752;SDS011;44525;46.052;13.610;2023-02-01T00:24:19;35.85;;;21.23;;
58752;SDS011;44525;46.052;13.610;2023-02-01T00:26:45;43.03;;;22.00;;
58752;SDS011;44525;46.052;13.610;2023-02-01T00:29:12;37.85;;;20.70;;
58752;SDS011;44525;46.052;13.610;2023-02-01T00:31:40;41.15;;;21.63;;
58752;SDS011;44525;46.052;13.610;2023-02-01T00:34:06;36.50;;;19.67;;
58752;SDS011;44525;46.052;13.610;2023-02-01T00:36:31;41.70;;;21.30;;
58752;SDS011;44525;46.052;13.610;2023-02-01T00:38:57;40.05;;;20.17;;
58752;SDS011;44525;46.052;13.610;2023-02-01T00:41:22;39.90;;;20.90;;
58752;SDS011;44525;46.052;13.610;2023-02-01T00:43:48;43.30;;;19.73;;
58752;SDS011;44525;46.052;13.610;2023-02-01T00:46:15;34.47;;;18.75;;
58752;SDS011;44525;46.052;13.610;2023-02-01T00:48:42;42.38;;;21.25;;
58752;SDS011;44525;46.052;13.610;2023-02-01T00:51:09;36.38;;;19.63;;
58752;SDS011;44525;46.052;13.610;2023-02-01T00:53:36;40.80;;;20.98;;
58752;SDS011;44525;46.052;13.610;2023-02-01T00:56:02;39.33;;;20.77;;
58752;SDS011;44525;46.052;13.610;2023-02-01T00:58:28;37.55;;;20.33;;
58752;SDS011;44525;46.052;13.610;2023-02-01T01:01:00;37.88;;;19.52;;
58752;SDS011;44525;46.052;13.610;2023-02-01T01:03:33;35.10;;;19.50;;
58752;SDS011;44525;46.052;13.610;2023-02-01T01:06:02;41.45;;;21.48;;
58752;SDS011;44525;46.052;13.610;2023-02-01T01:08:30;42.10;;;20.08;;
58752;SDS011;44525;46.052;13.610;2023-02-01T01:10:55;39.50;;;19.27;;
58752;SDS011;44525;46.052;13.610;2023-02-01T01:13:21;38.70;;;19.85;;
58752;SDS011;44525;46.052;13.610;2023-02-01T01:15:46;34.70;;;16.92;;
58752;SDS011;44525;46.052;13.610;2023-02-01T01:18:12;36.90;;;18.92;;
58752;SDS011;44525;46.052;13.610;2023-02-01T01:20:39;37.00;;;18.42;;
58752;SDS011;44525;46.052;13.610;2023-02-01T01:23:05;40.70;;;20.30;;
58752;SDS011;44525;46.052;13.610;2023-02-01T01:25:32;35.83;;;18.38;;
58752;SDS011;44525;46.052;13.610;2023-02-01T01:28:01;36.25;;;17.88;;
58752;SDS011;44525;46.052;13.610;2023-02-01T01:30:27;35.97;;;19.33;;
58752;SDS011;44525;46.052;13.610;2023-02-01T01:32:52;32.90;;;17.83;;
58752;SDS011;44525;46.052;13.610;2023-02-01T01:35:18;34.05;;;17.73;;
58752;SDS011;44525;46.052;13.610;2023-02-01T01:37:43;41.50;;;18.50;;
58752;SDS011;44525;46.052;13.610;2023-02-01T01:40:09;32.80;;;17.27;;
58752;SDS011;44525;46.052;13.610;2023-02-01T01:42:38;36.55;;;19.13;;
58752;SDS011;44525;46.052;13.610;2023-02-01T01:45:07;32.20;;;19.15;;
58752;SDS011;44525;46.052;13.610;2023-02-01T01:47:46;37.83;;;19.98;;
58752;SDS011;44525;46.052;13.610;2023-02-01T01:50:16;34.40;;;18.65;;
58752;SDS011;44525;46.052;13.610;2023-02-01T01:52:46;41.63;;;20.13;;
58752;SDS011;44525;46.052;13.610;2023-02-01T01:55:14;36.95;;;20.10;;
58752;SDS011;44525;46.052;13.610;2023-02-01T01:57:44;34.88;;;19.27;;
58752;SDS011;44525;46.052;13.610;2023-02-01T02:00:17;41.90;;;19.17;;
58752;SDS011;44525;46.052;13.610;2023-02-01T02:02:46;37.05;;;20.33;;
58752;SDS011;44525;46.052;13.610;2023-02-01T02:05:15;39.90;;;20.33;;
58752;SDS011;44525;46.052;13.610;2023-02-01T02:07:43;40.25;;;18.27;;
58752;SDS011;44525;46.052;13.610;2023-02-01T02:10:13;42.10;;;20.58;;
58752;SDS011;44525;46.052;13.610;2023-02-01T02:12:40;34.13;;;19.33;;
58752;SDS011;44525;46.052;13.610;2023-02-01T02:15:10;37.58;;;18.35;;
58752;SDS011;44525;46.052;13.610;2023-02-01T02:35:29;33.58;;;18.63;;
58752;SDS011;44525;46.052;13.610;2023-02-01T02:41:18;33.88;;;16.88;;
58752;SDS011;44525;46.052;13.610;2023-02-01T02:43:32;29.52;;;16.50;;
58752;SDS011;44525;46.052;13.610;2023-02-01T02:49:42;31.70;;;16.52;;
58752;SDS011;44525;46.052;13.610;2023-02-01T02:52:36;28.45;;;13.50;;
58752;SDS011;44525;46.052;13.610;2023-02-01T02:55:26;26.23;;;11.63;;
58752;SDS011;44525;46.052;13.610;2023-02-01T02:57:53;23.30;;;11.50;;
58752;SDS011;44525;46.052;13.610;2023-02-01T03:00:40;17.63;;;10.85;;
58752;SDS011;44525;46.052;13.610;2023-02-01T03:03:25;22.27;;;14.25;;
58752;SDS011;44525;46.052;13.610;2023-02-01T03:06:16;25.60;;;13.13;;
58752;SDS011;44525;46.052;13.610;2023-02-01T03:08:43;30.00;;;15.00;;
58752;SDS011;44525;46.052;13.610;2023-02-01T03:11:11;28.85;;;14.38;;
58752;SDS011;44525;46.052;13.610;2023-02-01T03:18:44;25.63;;;14.10;;
58752;SDS011;44525;46.052;13.610;2023-02-01T03:21:20;31.02;;;13.88;;
58752;SDS011;44525;46.052;13.610;2023-02-01T03:23:50;22.73;;;13.25;;
58752;SDS011;44525;46.052;13.610;2023-02-01T03:26:18;26.73;;;13.82;;
58752;SDS011;44525;46.052;13.610;2023-02-01T03:28:52;23.48;;;12.38;;
58752;SDS011;44525;46.052;13.610;2023-02-01T03:31:21;22.55;;;13.15;;
58752;SDS011;44525;46.052;13.610;2023-02-01T03:33:47;30.92;;;14.27;;
58752;SDS011;44525;46.052;13.610;2023-02-01T03:42:14;28.35;;;14.90;;
58752;SDS011;44525;46.052;13.610;2023-02-01T03:44:50;28.23;;;15.02;;
58752;SDS011;44525;46.052;13.610;2023-02-01T03:47:26;26.33;;;12.88;;
58752;SDS011;44525;46.052;13.610;2023-02-01T03:49:57;23.42;;;12.98;;
58752;SDS011;44525;46.052;13.610;2023-02-01T03:55:04;26.73;;;12.55;;
58752;SDS011;44525;46.052;13.610;2023-02-01T03:57:35;22.23;;;12.40;;
58752;SDS011;44525;46.052;13.610;2023-02-01T04:00:09;21.95;;;12.73;;
58752;SDS011;44525;46.052;13.610;2023-02-01T04:02:41;21.27;;;12.70;;
58752;SDS011;44525;46.052;13.610;2023-02-01T04:05:07;28.05;;;14.45;;
58752;SDS011;44525;46.052;13.610;2023-02-01T04:07:33;23.83;;;12.30;;
58752;SDS011;44525;46.052;13.610;2023-02-01T04:09:58;21.27;;;12.32;;
58752;SDS011;44525;46.052;13.610;2023-02-01T04:12:23;21.63;;;12.15;;
58752;SDS011;44525;46.052;13.610;2023-02-01T04:14:49;32.42;;;18.20;;
58752;SDS011;44525;46.052;13.610;2023-02-01T04:17:14;25.33;;;13.35;;
58752;SDS011;44525;46.052;13.610;2023-02-01T04:19:40;22.60;;;12.80;;
58752;SDS011;44525;46.052;13.610;2023-02-01T04:22:05;27.98;;;13.02;;
58752;SDS011;44525;46.052;13.610;2023-02-01T04:24:30;26.10;;;13.65;;
58752;SDS011;44525;46.052;13.610;2023-02-01T04:26:56;22.58;;;12.95;;
58752;SDS011;44525;46.052;13.610;2023-02-01T04:29:21;23.80;;;12.18;;
58752;SDS011;44525;46.052;13.610;2023-02-01T04:31:46;23.15;;;11.43;;
58752;SDS011;44525;46.052;13.610;2023-02-01T04:34:12;21.65;;;11.88;;
58752;SDS011;44525;46.052;13.610;2023-02-01T04:36:37;21.75;;;11.98;;
58752;SDS011;44525;46.052;13.610;2023-02-01T04:39:03;18.40;;;11.98;;
58752;SDS011;44525;46.052;13.610;2023-02-01T04:41:28;27.50;;;12.90;;
58752;SDS011;44525;46.052;13.610;2023-02-01T04:43:55;23.33;;;13.65;;
58752;SDS011;44525;46.052;13.610;2023-02-01T04:46:20;25.88;;;12.90;;
58752;SDS011;44525;46.052;13.610;2023-02-01T04:48:45;25.10;;;12.85;;
58752;SDS011;44525;46.052;13.610;2023-02-01T04:51:11;22.40;;;12.32;;
58752;SDS011;44525;46.052;13.610;2023-02-01T04:53:36;22.13;;;12.48;;
58752;SDS011;44525;46.052;13.610;2023-02-01T04:56:02;22.13;;;12.48;;
58752;SDS011;44525;46.052;13.610;2023-02-01T04:58:27;24.33;;;13.18;;
58752;SDS011;44525;46.052;13.610;2023-02-01T05:00:53;20.98;;;12.20;;
58752;SDS011;44525;46.052;13.610;2023-02-01T05:03:18;23.50;;;13.43;;
58752;SDS011;44525;46.052;13.610;2023-02-01T05:05:44;25.30;;;12.35;;
58752;SDS011;44525;46.052;13.610;2023-02-01T05:08:11;23.27;;;12.85;;
58752;SDS011;44525;46.052;13.610;2023-02-01T05:10:37;24.33;;;13.30;;
58752;SDS011;44525;46.052;13.610;2023-02-01T05:13:02;29.08;;;13.50;;
58752;SDS011;44525;46.052;13.610;2023-02-01T05:15:46;21.73;;;12.73;;
58752;SDS011;44525;46.052;13.610;2023-02-01T05:18:12;30.23;;;14.57;;
58752;SDS011;44525;46.052;13.610;2023-02-01T05:20:38;23.48;;;13.13;;
58752;SDS011;44525;46.052;13.610;2023-02-01T05:23:03;26.45;;;16.30;;
58752;SDS011;44525;46.052;13.610;2023-02-01T05:25:29;27.85;;;13.55;;
58752;SDS011;44525;46.052;13.610;2023-02-01T05:27:54;31.08;;;16.95;;
58752;SDS011;44525;46.052;13.610;2023-02-01T05:30:19;23.63;;;14.20;;
58752;SDS011;44525;46.052;13.610;2023-02-01T05:32:45;30.23;;;15.13;;
58752;SDS011;44525;46.052;13.610;2023-02-01T05:35:14;28.15;;;13.38;;
58752;SDS011;44525;46.052;13.610;2023-02-01T05:37:40;21.65;;;12.05;;
58752;SDS011;44525;46.052;13.610;2023-02-01T05:40:05;22.05;;;11.95;;
58752;SDS011;44525;46.052;13.610;2023-02-01T05:42:31;30.75;;;15.15;;
58752;SDS011;44525;46.052;13.610;2023-02-01T05:44:56;24.60;;;11.88;;
58752;SDS011;44525;46.052;13.610;2023-02-01T05:47:22;22.23;;;11.20;;
58752;SDS011;44525;46.052;13.610;2023-02-01T05:49:47;22.67;;;12.50;;
58752;SDS011;44525;46.052;13.610;2023-02-01T05:52:13;19.30;;;11.05;;
58752;SDS011;44525;46.052;13.610;2023-02-01T05:54:38;22.00;;;11.73;;
58752;SDS011;44525;46.052;13.610;2023-02-01T05:57:04;27.70;;;11.95;;
58752;SDS011;44525;46.052;13.610;2023-02-01T05:59:29;22.25;;;11.57;;
58752;SDS011;44525;46.052;13.610;2023-02-01T06:01:54;24.88;;;12.90;;
58752;SDS011;44525;46.052;13.610;2023-02-01T06:04:20;22.17;;;11.90;;
58752;SDS011;44525;46.052;13.610;2023-02-01T06:06:45;23.00;;;12.15;;
58752;SDS011;44525;46.052;13.610;2023-02-01T06:09:11;26.00;;;12.35;;
58752;SDS011;44525;46.052;13.610;2023-02-01T06:11:36;24.67;;;12.57;;
58752;SDS011;44525;46.052;13.610;2023-02-01T06:14:02;24.60;;;11.35;;
58752;SDS011;44525;46.052;13.610;2023-02-01T06:16:27;27.17;;;12.88;;
58752;SDS011;44525;46.052;13.610;2023-02-01T06:18:53;26.85;;;13.27;;
58752;SDS011;44525;46.052;13.610;2023-02-01T06:21:18;24.05;;;11.85;;
58752;SDS011;44525;46.052;13.610;2023-02-01T06:23:51;25.80;;;13.27;;
58752;SDS011;44525;46.052;13.610;2023-02-01T06:26:18;25.27;;;12.63;;
58752;SDS011;44525;46.052;13.610;2023-02-01T06:28:44;29.67;;;13.07;;
58752;SDS011;44525;46.052;13.610;2023-02-01T06:31:09;24.50;;;12.98;;
58752;SDS011;44525;46.052;13.610;2023-02-01T06:33:35;26.80;;;13.90;;
58752;SDS011;44525;46.052;13.610;2023-02-01T06:36:01;33.80;;;16.17;;
58752;SDS011;44525;46.052;13.610;2023-02-01T06:38:29;27.58;;;14.75;;
58752;SDS011;44525;46.052;13.610;2023-02-01T06:40:55;27.02;;;14.95;;
58752;SDS011;44525;46.052;13.610;2023-02-01T06:43:22;32.50;;;17.60;;
58752;SDS011;44525;46.052;13.610;2023-02-01T06:45:49;38.85;;;22.05;;
58752;SDS011;44525;46.052;13.610;2023-02-01T06:48:15;35.95;;;17.58;;
58752;SDS011;44525;46.052;13.610;2023-02-01T06:50:40;43.22;;;22.38;;
58752;SDS011;44525;46.052;13.610;2023-02-01T06:53:06;34.35;;;20.00;;
58752;SDS011;44525;46.052;13.610;2023-02-01T06:55:31;28.40;;;15.60;;
58752;SDS011;44525;46.052;13.610;2023-02-01T06:57:57;27.27;;;13.40;;
58752;SDS011;44525;46.052;13.610;2023-02-01T07:00:22;37.03;;;19.38;;
58752;SDS011;44525;46.052;13.610;2023-02-01T07:02:48;33.25;;;17.48;;
58752;SDS011;44525;46.052;13.610;2023-02-01T07:05:14;30.48;;;18.45;;
58752;SDS011;44525;46.052;13.610;2023-02-01T07:07:40;33.08;;;16.42;;
58752;SDS011;44525;46.052;13.610;2023-02-01T07:10:05;36.90;;;18.42;;
58752;SDS011;44525;46.052;13.610;2023-02-01T07:12:31;38.08;;;19.08;;
58752;SDS011;44525;46.052;13.610;2023-02-01T07:14:57;30.13;;;17.38;;
58752;SDS011;44525;46.052;13.610;2023-02-01T07:17:22;23.45;;;13.93;;
58752;SDS011;44525;46.052;13.610;2023-02-01T07:19:48;24.08;;;13.05;;
58752;SDS011;44525;46.052;13.610;2023-02-01T07:22:16;27.40;;;13.60;;
58752;SDS011;44525;46.052;13.610;2023-02-01T07:24:42;28.73;;;14.52;;
58752;SDS011;44525;46.052;13.610;2023-02-01T07:27:07;229.13;;;96.93;;
58752;SDS011;44525;46.052;13.610;2023-02-01T07:29:32;47.03;;;21.15;;
58752;SDS011;44525;46.052;13.610;2023-02-01T07:31:58;49.00;;;21.42;;
58752;SDS011;44525;46.052;13.610;2023-02-01T07:34:23;27.73;;;13.65;;
58752;SDS011;44525;46.052;13.610;2023-02-01T07:36:49;24.10;;;13.18;;
58752;SDS011;44525;46.052;13.610;2023-02-01T07:39:14;30.52;;;16.17;;
58752;SDS011;44525;46.052;13.610;2023-02-01T07:41:39;40.72;;;20.83;;
58752;SDS011;44525;46.052;13.610;2023-02-01T07:44:05;37.40;;;19.60;;
58752;SDS011;44525;46.052;13.610;2023-02-01T07:46:30;33.63;;;18.25;;
58752;SDS011;44525;46.052;13.610;2023-02-01T07:48:56;24.55;;;13.55;;
58752;SDS011;44525;46.052;13.610;2023-02-01T07:51:21;29.67;;;13.18;;
58752;SDS011;44525;46.052;13.610;2023-02-01T07:53:46;25.25;;;12.68;;
58752;SDS011;44525;46.052;13.610;2023-02-01T07:56:13;24.30;;;14.00;;
58752;SDS011;44525;46.052;13.610;2023-02-01T07:58:40;25.25;;;14.38;;
58752;SDS011;44525;46.052;13.610;2023-02-01T08:01:11;41.80;;;24.52;;
58752;SDS011;44525;46.052;13.610;2023-02-01T08:03:44;41.78;;;22.17;;
58752;SDS011;44525;46.052;13.610;2023-02-01T08:06:10;37.17;;;16.33;;
58752;SDS011;44525;46.052;13.610;2023-02-01T08:08:35;23.48;;;12.00;;
58752;SDS011;44525;46.052;13.610;2023-02-01T08:11:01;26.02;;;12.20;;
58752;SDS011;44525;46.052;13.610;2023-02-01T08:13:28;21.58;;;12.32;;
58752;SDS011;44525;46.052;13.610;2023-02-01T08:15:57;24.45;;;13.45;;
58752;SDS011;44525;46.052;13.610;2023-02-01T08:18:23;27.05;;;12.95;;
58752;SDS011;44525;46.052;13.610;2023-02-01T08:20:49;24.35;;;11.95;;
58752;SDS011;44525;46.052;13.610;2023-02-01T08:23:14;22.42;;;11.00;;
58752;SDS011;44525;46.052;13.610;2023-02-01T08:25:40;20.38;;;11.55;;
58752;SDS011;44525;46.052;13.610;2023-02-01T08:28:06;22.88;;;11.23;;
58752;SDS011;44525;46.052;13.610;2023-02-01T08:30:32;27.65;;;12.07;;
58752;SDS011;44525;46.052;13.610;2023-02-01T08:32:57;25.42;;;12.43;;
58752;SDS011;44525;46.052;13.610;2023-02-01T08:35:23;26.17;;;11.25;;
58752;SDS011;44525;46.052;13.610;2023-02-01T08:37:52;20.73;;;11.73;;
58752;SDS011;44525;46.052;13.610;2023-02-01T08:40:17;25.52;;;12.60;;
58752;SDS011;44525;46.052;13.610;2023-02-01T08:42:42;24.90;;;11.70;;
58752;SDS011;44525;46.052;13.610;2023-02-01T08:47:44;23.85;;;12.00;;
58752;SDS011;44525;46.052;13.610;2023-02-01T08:50:09;22.02;;;13.65;;
58752;SDS011;44525;46.052;13.610;2023-02-01T08:52:35;21.70;;;11.27;;
58752;SDS011;44525;46.052;13.610;2023-02-01T08:55:01;22.00;;;11.07;;
58752;SDS011;44525;46.052;13.610;2023-02-01T08:57:26;20.58;;;11.27;;
58752;SDS011;44525;46.052;13.610;2023-02-01T08:59:52;29.25;;;14.20;;
58752;SDS011;44525;46.052;13.610;2023-02-01T09:02:17;51.63;;;27.85;;
58752;SDS011;44525;46.052;13.610;2023-02-01T09:04:42;25.27;;;13.73;;
58752;SDS011;44525;46.052;13.610;2023-02-01T09:07:08;25.17;;;12.60;;
58752;SDS011;44525;46.052;13.610;2023-02-01T09:09:35;40.25;;;27.95;;
58752;SDS011;44525;46.052;13.610;2023-02-01T09:12:01;23.20;;;15.02;;
58752;SDS011;44525;46.052;13.610;2023-02-01T09:14:27;29.70;;;14.43;;
58752;SDS011;44525;46.052;13.610;2023-02-01T09:16:52;23.10;;;12.30;;
58752;SDS011;44525;46.052;13.610;2023-02-01T09:19:18;24.45;;;15.82;;
58752;SDS011;44525;46.052;13.610;2023-02-01T09:21:43;24.17;;;13.50;;
58752;SDS011;44525;46.052;13.610;2023-02-01T09:24:12;28.23;;;13.82;;
58752;SDS011;44525;46.052;13.610;2023-02-01T09:26:38;28.17;;;12.50;;
58752;SDS011;44525;46.052;13.610;2023-02-01T09:29:04;24.13;;;11.77;;
58752;SDS011;44525;46.052;13.610;2023-02-01T09:31:34;22.08;;;10.95;;
58752;SDS011;44525;46.052;13.610;2023-02-01T09:34:00;25.10;;;10.57;;
58752;SDS011;44525;46.052;13.610;2023-02-01T09:36:26;20.80;;;9.95;;
58752;SDS011;44525;46.052;13.610;2023-02-01T09:38:52;29.05;;;12.35;;
58752;SDS011;44525;46.052;13.610;2023-02-01T09:44:18;27.63;;;10.70;;
58752;SDS011;44525;46.052;13.610;2023-02-01T09:46:57;22.40;;;11.00;;
58752;SDS011;44525;46.052;13.610;2023-02-01T09:49:28;26.30;;;12.05;;
58752;SDS011;44525;46.052;13.610;2023-02-01T09:51:56;23.60;;;11.98;;
58752;SDS011;44525;46.052;13.610;2023-02-01T09:54:29;20.25;;;11.70;;
58752;SDS011;44525;46.052;13.610;2023-02-01T09:57:15;29.38;;;13.13;;
58752;SDS011;44525;46.052;13.610;2023-02-01T09:59:49;22.48;;;11.35;;
58752;SDS011;44525;46.052;13.610;2023-02-01T10:02:21;25.38;;;12.20;;
58752;SDS011;44525;46.052;13.610;2023-02-01T10:04:49;27.25;;;12.43;;
58752;SDS011;44525;46.052;13.610;2023-02-01T10:18:27;25.73;;;13.75;;
58752;SDS011;44525;46.052;13.610;2023-02-01T10:26:33;27.85;;;12.95;;
58752;SDS011;44525;46.052;13.610;2023-02-01T10:29:03;51.85;;;26.27;;
58752;SDS011;44525;46.052;13.610;2023-02-01T10:31:36;46.83;;;22.55;;
58752;SDS011;44525;46.052;13.610;2023-02-01T10:34:22;30.40;;;16.50;;
58752;SDS011;44525;46.052;13.610;2023-02-01T10:39:33;29.92;;;16.05;;
58752;SDS011;44525;46.052;13.610;2023-02-01T10:41:58;23.08;;;12.80;;
58752;SDS011;44525;46.052;13.610;2023-02-01T10:44:25;29.73;;;15.95;;
58752;SDS011;44525;46.052;13.610;2023-02-01T10:46:52;22.33;;;12.48;;
58752;SDS011;44525;46.052;13.610;2023-02-01T10:49:41;27.35;;;14.40;;
58752;SDS011;44525;46.052;13.610;2023-02-01T10:52:20;26.35;;;13.77;;
58752;SDS011;44525;46.052;13.610;2023-02-01T10:57:56;34.80;;;17.08;;
58752;SDS011;44525;46.052;13.610;2023-02-01T11:00:23;30.48;;;15.93;;
58752;SDS011;44525;46.052;13.610;2023-02-01T11:02:49;25.33;;;13.20;;
58752;SDS011;44525;46.052;13.610;2023-02-01T11:05:15;26.45;;;13.88;;
58752;SDS011;44525;46.052;13.610;2023-02-01T11:07:46;48.40;;;22.35;;
58752;SDS011;44525;46.052;13.610;2023-02-01T11:10:34;34.75;;;16.60;;
58752;SDS011;44525;46.052;13.610;2023-02-01T11:13:05;30.02;;;14.38;;
58752;SDS011;44525;46.052;13.610;2023-02-01T11:15:38;28.27;;;14.32;;
58752;SDS011;44525;46.052;13.610;2023-02-01T11:18:16;31.17;;;14.15;;
58752;SDS011;44525;46.052;13.610;2023-02-01T11:20:49;77.13;;;42.50;;
58752;SDS011;44525;46.052;13.610;2023-02-01T11:23:18;34.60;;;17.35;;
58752;SDS011;44525;46.052;13.610;2023-02-01T11:25:50;41.78;;;21.95;;
58752;SDS011;44525;46.052;13.610;2023-02-01T11:28:18;29.10;;;15.23;;
58752;SDS011;44525;46.052;13.610;2023-02-01T11:30:46;40.65;;;22.10;;
58752;SDS011;44525;46.052;13.610;2023-02-01T11:33:14;30.23;;;15.35;;
58752;SDS011;44525;46.052;13.610;2023-02-01T11:35:42;34.13;;;18.55;;
58752;SDS011;44525;46.052;13.610;2023-02-01T11:38:15;44.85;;;22.90;;
58752;SDS011;44525;46.052;13.610;2023-02-01T11:40:46;31.23;;;15.45;;
58752;SDS011;44525;46.052;13.610;2023-02-01T11:43:22;33.80;;;15.52;;
58752;SDS011;44525;46.052;13.610;2023-02-01T11:45:56;28.55;;;15.48;;
58752;SDS011;44525;46.052;13.610;2023-02-01T11:48:24;32.42;;;16.83;;
58752;SDS011;44525;46.052;13.610;2023-02-01T11:50:57;28.95;;;15.00;;
58752;SDS011;44525;46.052;13.610;2023-02-01T12:02:51;32.05;;;16.10;;
58752;SDS011;44525;46.052;13.610;2023-02-01T12:08:32;33.63;;;18.77;;
58752;SDS011;44525;46.052;13.610;2023-02-01T12:14:05;27.10;;;15.23;;
58752;SDS011;44525;46.052;13.610;2023-02-01T12:25:16;29.75;;;15.80;;
58752;SDS011;44525;46.052;13.610;2023-02-01T12:33:17;29.13;;;15.98;;
58752;SDS011;44525;46.052;13.610;2023-02-01T12:52:23;32.95;;;19.65;;
58752;SDS011;44525;46.052;13.610;2023-02-01T12:55:01;32.35;;;19.48;;
58752;SDS011;44525;46.052;13.610;2023-02-01T12:57:43;34.60;;;20.10;;
58752;SDS011;44525;46.052;13.610;2023-02-01T13:03:01;104.25;;;48.10;;
58752;SDS011;44525;46.052;13.610;2023-02-01T13:08:26;41.90;;;22.75;;
58752;SDS011;44525;46.052;13.610;2023-02-01T13:11:11;33.50;;;17.00;;
58752;SDS011;44525;46.052;13.610;2023-02-01T13:19:20;39.97;;;23.27;;
58752;SDS011;44525;46.052;13.610;2023-02-01T13:22:05;40.85;;;24.25;;
58752;SDS011;44525;46.052;13.610;2023-02-01T13:27:14;37.38;;;19.85;;
58752;SDS011;44525;46.052;13.610;2023-02-01T13:32:37;33.70;;;19.33;;
58752;SDS011;44525;46.052;13.610;2023-02-01T13:35:47;32.53;;;18.60;;
58752;SDS011;44525;46.052;13.610;2023-02-01T13:38:09;39.85;;;20.23;;
58752;SDS011;44525;46.052;13.610;2023-02-01T13:41:11;36.22;;;19.48;;
58752;SDS011;44525;46.052;13.610;2023-02-01T13:43:56;33.22;;;18.48;;
58752;SDS011;44525;46.052;13.610;2023-02-01T13:46:25;30.15;;;17.13;;
58752;SDS011;44525;46.052;13.610;2023-02-01T13:48:55;35.72;;;19.08;;
58752;SDS011;44525;46.052;13.610;2023-02-01T13:57:13;36.08;;;19.50;;
58752;SDS011;44525;46.052;13.610;2023-02-01T14:00:31;33.45;;;19.60;;
58752;SDS011;44525;46.052;13.610;2023-02-01T14:21:20;42.53;;;22.70;;
58752;SDS011;44525;46.052;13.610;2023-02-01T14:26:19;45.72;;;24.85;;
58752;SDS011;44525;46.052;13.610;2023-02-01T14:28:48;38.72;;;22.23;;
58752;SDS011;44525;46.052;13.610;2023-02-01T14:31:30;43.80;;;24.45;;
58752;SDS011;44525;46.052;13.610;2023-02-01T14:34:12;42.60;;;24.52;;
58752;SDS011;44525;46.052;13.610;2023-02-01T14:36:48;46.15;;;25.92;;
58752;SDS011;44525;46.052;13.610;2023-02-01T14:39:18;41.75;;;24.02;;
58752;SDS011;44525;46.052;13.610;2023-02-01T14:41:46;41.22;;;21.92;;
58752;SDS011;44525;46.052;13.610;2023-02-01T14:44:23;47.33;;;26.73;;
58752;SDS011;44525;46.052;13.610;2023-02-01T14:58:06;48.65;;;26.10;;
58752;SDS011;44525;46.052;13.610;2023-02-01T15:00:56;49.20;;;28.25;;
58752;SDS011;44525;46.052;13.610;2023-02-01T15:08:54;51.83;;;28.92;;
58752;SDS011;44525;46.052;13.610;2023-02-01T15:11:22;51.72;;;27.23;;
58752;SDS011;44525;46.052;13.610;2023-02-01T15:13:51;56.42;;;29.85;;
58752;SDS011;44525;46.052;13.610;2023-02-01T15:16:19;53.72;;;26.92;;
58752;SDS011;44525;46.052;13.610;2023-02-01T15:18:47;45.63;;;23.90;;
58752;SDS011;44525;46.052;13.610;2023-02-01T15:21:17;44.60;;;23.90;;
58752;SDS011;44525;46.052;13.610;2023-02-01T15:23:45;45.75;;;22.23;;
58752;SDS011;44525;46.052;13.610;2023-02-01T15:26:29;41.70;;;23.67;;
58752;SDS011;44525;46.052;13.610;2023-02-01T15:28:57;68.07;;;35.78;;
58752;SDS011;44525;46.052;13.610;2023-02-01T15:31:33;80.15;;;42.53;;
58752;SDS011;44525;46.052;13.610;2023-02-01T15:34:00;44.83;;;22.73;;
58752;SDS011;44525;46.052;13.610;2023-02-01T15:36:26;85.80;;;37.13;;
58752;SDS011;44525;46.052;13.610;2023-02-01T15:39:14;130.38;;;52.58;;
58752;SDS011;44525;46.052;13.610;2023-02-01T15:41:51;120.72;;;48.75;;
58752;SDS011;44525;46.052;13.610;2023-02-01T15:44:20;79.85;;;37.42;;
58752;SDS011;44525;46.052;13.610;2023-02-01T15:46:53;58.33;;;28.10;;
58752;SDS011;44525;46.052;13.610;2023-02-01T15:49:26;46.45;;;23.65;;
58752;SDS011;44525;46.052;13.610;2023-02-01T15:52:00;56.20;;;28.67;;
58752;SDS011;44525;46.052;13.610;2023-02-01T15:54:28;83.82;;;40.42;;
58752;SDS011;44525;46.052;13.610;2023-02-01T15:56:57;90.00;;;41.28;;
58752;SDS011;44525;46.052;13.610;2023-02-01T15:59:30;141.13;;;57.65;;
58752;SDS011;44525;46.052;13.610;2023-02-01T16:02:03;249.98;;;99.78;;
58752;SDS011;44525;46.052;13.610;2023-02-01T16:04:28;49.97;;;24.27;;
58752;SDS011;44525;46.052;13.610;2023-02-01T16:09:39;50.63;;;27.38;;
58752;SDS011;44525;46.052;13.610;2023-02-01T16:12:34;91.38;;;40.40;;
58752;SDS011;44525;46.052;13.610;2023-02-01T16:15:03;84.50;;;40.28;;
58752;SDS011;44525;46.052;13.610;2023-02-01T16:17:29;186.75;;;83.18;;
58752;SDS011;44525;46.052;13.610;2023-02-01T16:19:55;126.57;;;55.80;;
58752;SDS011;44525;46.052;13.610;2023-02-01T16:22:22;101.72;;;48.22;;
58752;SDS011;44525;46.052;13.610;2023-02-01T16:24:47;94.55;;;44.67;;
58752;SDS011;44525;46.052;13.610;2023-02-01T16:27:12;68.55;;;32.75;;
58752;SDS011;44525;46.052;13.610;2023-02-01T16:29:38;81.10;;;38.53;;
58752;SDS011;44525;46.052;13.610;2023-02-01T16:32:04;74.45;;;36.53;;
58752;SDS011;44525;46.052;13.610;2023-02-01T16:34:30;65.03;;;33.33;;
58752;SDS011;44525;46.052;13.610;2023-02-01T16:36:55;64.47;;;33.50;;
58752;SDS011;44525;46.052;13.610;2023-02-01T16:39:22;61.72;;;29.27;;
58752;SDS011;44525;46.052;13.610;2023-02-01T16:41:48;60.92;;;31.02;;
58752;SDS011;44525;46.052;13.610;2023-02-01T16:44:13;75.32;;;40.55;;
58752;SDS011;44525;46.052;13.610;2023-02-01T16:46:40;67.22;;;33.47;;
58752;SDS011;44525;46.052;13.610;2023-02-01T16:49:16;80.20;;;38.38;;
58752;SDS011;44525;46.052;13.610;2023-02-01T16:51:44;52.20;;;27.73;;
58752;SDS011;44525;46.052;13.610;2023-02-01T16:54:10;60.97;;;29.80;;
58752;SDS011;44525;46.052;13.610;2023-02-01T16:56:35;50.78;;;26.77;;
58752;SDS011;44525;46.052;13.610;2023-02-01T16:59:05;48.42;;;25.25;;
58752;SDS011;44525;46.052;13.610;2023-02-01T17:01:30;58.15;;;30.40;;
58752;SDS011;44525;46.052;13.610;2023-02-01T17:03:56;74.28;;;38.10;;
58752;SDS011;44525;46.052;13.610;2023-02-01T17:06:22;75.72;;;38.83;;
58752;SDS011;44525;46.052;13.610;2023-02-01T17:08:50;70.60;;;38.22;;
58752;SDS011;44525;46.052;13.610;2023-02-01T17:11:17;79.38;;;40.22;;
58752;SDS011;44525;46.052;13.610;2023-02-01T17:13:43;77.38;;;40.33;;
58752;SDS011;44525;46.052;13.610;2023-02-01T17:16:20;68.93;;;39.13;;